sensor_id;sensor_type;location;lat;lon;timestamp;P1;durP1;ratioP1;P2;durP2;ratioP2
70975;SDS011;58635;51.198;6.010;2023-07-31T00:01:20;8.93;;;4.10;;
70975;SDS011;58635;51.198;6.010;2023-07-31T00:03:47;10.00;;;4.32;;
70975;SDS011;58635;51.198;6.010;2023-07-31T00:06:13;11.52;;;3.72;;
70975;SDS011;58635;51.198;6.010;2023-07-31T00:08:40;10.55;;;3.90;;
70975;SDS011;58635;51.198;6.010;2023-07-31T00:11:06;8.82;;;3.97;;
70975;SDS011;58635;51.198;6.010;2023-07-31T00:13:33;11.50;;;3.47;;
70975;SDS011;58635;51.198;6.010;2023-07-31T00:15:59;7.70;;;3.92;;
70975;SDS011;58635;51.198;6.010;2023-07-31T00:18:25;10.15;;;3.80;;
70975;SDS011;58635;51.198;6.010;2023-07-31T00:20:52;9.80;;;3.65;;
70975;SDS011;58635;51.198;6.010;2023-07-31T00:23:18;11.35;;;3.80;;
70975;SDS011;58635;51.198;6.010;2023-07-31T00:25:44;9.63;;;3.40;;
70975;SDS011;58635;51.198;6.010;2023-07-31T00:28:11;8.68;;;3.50;;
70975;SDS011;58635;51.198;6.010;2023-07-31T00:30:37;8.95;;;3.55;;
70975;SDS011;58635;51.198;6.010;2023-07-31T00:33:04;11.48;;;3.58;;
70975;SDS011;58635;51.198;6.010;2023-07-31T00:35:30;8.38;;;3.67;;
70975;SDS011;58635;51.198;6.010;2023-07-31T00:37:57;9.68;;;4.05;;
70975;SDS011;58635;51.198;6.010;2023-07-31T00:40:24;9.85;;;3.55;;
70975;SDS011;58635;51.198;6.010;2023-07-31T00:42:50;12.93;;;3.83;;
70975;SDS011;58635;51.198;6.010;2023-07-31T00:45:17;8.15;;;3.70;;
70975;SDS011;58635;51.198;6.010;2023-07-31T00:47:43;9.07;;;3.47;;
70975;SDS011;58635;51.198;6.010;2023-07-31T00:50:10;9.27;;;3.88;;
70975;SDS011;58635;51.198;6.010;2023-07-31T00:52:36;9.68;;;3.85;;
70975;SDS011;58635;51.198;6.010;2023-07-31T00:55:03;8.07;;;3.58;;
70975;SDS011;58635;51.198;6.010;2023-07-31T00:57:30;12.15;;;3.80;;
70975;SDS011;58635;51.198;6.010;2023-07-31T00:59:58;8.95;;;3.70;;
70975;SDS011;58635;51.198;6.010;2023-07-31T01:02:24;11.77;;;3.80;;
70975;SDS011;58635;51.198;6.010;2023-07-31T01:04:51;11.27;;;3.53;;
70975;SDS011;58635;51.198;6.010;2023-07-31T01:10:16;10.85;;;3.78;;
70975;SDS011;58635;51.198;6.010;2023-07-31T01:12:48;8.57;;;3.90;;
70975;SDS011;58635;51.198;6.010;2023-07-31T01:15:16;11.73;;;3.97;;
70975;SDS011;58635;51.198;6.010;2023-07-31T01:17:43;9.27;;;4.00;;
70975;SDS011;58635;51.198;6.010;2023-07-31T01:20:26;10.90;;;4.00;;
70975;SDS011;58635;51.198;6.010;2023-07-31T01:31:41;12.90;;;3.80;;
70975;SDS011;58635;51.198;6.010;2023-07-31T01:34:08;11.52;;;4.00;;
70975;SDS011;58635;51.198;6.010;2023-07-31T01:36:36;13.93;;;4.13;;
70975;SDS011;58635;51.198;6.010;2023-07-31T01:39:03;10.65;;;4.30;;
70975;SDS011;58635;51.198;6.010;2023-07-31T01:41:30;11.50;;;4.30;;
70975;SDS011;58635;51.198;6.010;2023-07-31T01:43:56;9.43;;;4.05;;
70975;SDS011;58635;51.198;6.010;2023-07-31T01:46:22;8.85;;;4.22;;
70975;SDS011;58635;51.198;6.010;2023-07-31T01:48:49;9.40;;;3.90;;
70975;SDS011;58635;51.198;6.010;2023-07-31T01:51:15;9.73;;;3.72;;
70975;SDS011;58635;51.198;6.010;2023-07-31T01:53:41;12.00;;;4.18;;
70975;SDS011;58635;51.198;6.010;2023-07-31T01:56:08;12.65;;;3.83;;
70975;SDS011;58635;51.198;6.010;2023-07-31T01:58:34;14.02;;;3.55;;
70975;SDS011;58635;51.198;6.010;2023-07-31T02:01:01;9.32;;;3.97;;
70975;SDS011;58635;51.198;6.010;2023-07-31T02:03:27;10.00;;;3.80;;
70975;SDS011;58635;51.198;6.010;2023-07-31T02:05:54;8.15;;;3.70;;
70975;SDS011;58635;51.198;6.010;2023-07-31T02:08:20;9.90;;;3.95;;
70975;SDS011;58635;51.198;6.010;2023-07-31T02:10:47;10.52;;;3.70;;
70975;SDS011;58635;51.198;6.010;2023-07-31T02:13:13;11.82;;;4.13;;
70975;SDS011;58635;51.198;6.010;2023-07-31T02:15:39;11.02;;;4.03;;
70975;SDS011;58635;51.198;6.010;2023-07-31T02:18:06;11.60;;;4.20;;
70975;SDS011;58635;51.198;6.010;2023-07-31T02:20:35;12.70;;;4.05;;
70975;SDS011;58635;51.198;6.010;2023-07-31T02:23:02;10.40;;;3.60;;
70975;SDS011;58635;51.198;6.010;2023-07-31T02:25:28;11.43;;;3.92;;
70975;SDS011;58635;51.198;6.010;2023-07-31T02:27:55;10.60;;;4.05;;
70975;SDS011;58635;51.198;6.010;2023-07-31T02:30:21;9.88;;;4.15;;
70975;SDS011;58635;51.198;6.010;2023-07-31T02:32:48;7.75;;;3.88;;
70975;SDS011;58635;51.198;6.010;2023-07-31T02:35:15;9.13;;;4.10;;
70975;SDS011;58635;51.198;6.010;2023-07-31T02:37:42;11.50;;;4.20;;
70975;SDS011;58635;51.198;6.010;2023-07-31T02:40:08;13.05;;;4.18;;
70975;SDS011;58635;51.198;6.010;2023-07-31T02:42:35;12.00;;;4.57;;
70975;SDS011;58635;51.198;6.010;2023-07-31T02:45:01;9.07;;;3.80;;
70975;SDS011;58635;51.198;6.010;2023-07-31T02:47:28;7.18;;;3.63;;
70975;SDS011;58635;51.198;6.010;2023-07-31T02:49:54;11.73;;;3.97;;
70975;SDS011;58635;51.198;6.010;2023-07-31T02:52:22;10.63;;;3.88;;
70975;SDS011;58635;51.198;6.010;2023-07-31T02:54:48;9.93;;;3.78;;
70975;SDS011;58635;51.198;6.010;2023-07-31T02:57:14;10.27;;;4.05;;
70975;SDS011;58635;51.198;6.010;2023-07-31T02:59:42;10.27;;;4.18;;
70975;SDS011;58635;51.198;6.010;2023-07-31T03:02:08;9.15;;;4.20;;
70975;SDS011;58635;51.198;6.010;2023-07-31T03:04:35;9.63;;;3.88;;
70975;SDS011;58635;51.198;6.010;2023-07-31T03:07:01;8.00;;;3.65;;
70975;SDS011;58635;51.198;6.010;2023-07-31T03:09:27;12.68;;;4.25;;
70975;SDS011;58635;51.198;6.010;2023-07-31T03:11:54;13.25;;;4.32;;
70975;SDS011;58635;51.198;6.010;2023-07-31T03:14:20;10.18;;;3.85;;
70975;SDS011;58635;51.198;6.010;2023-07-31T03:16:46;10.75;;;4.07;;
70975;SDS011;58635;51.198;6.010;2023-07-31T03:19:13;9.75;;;4.00;;
70975;SDS011;58635;51.198;6.010;2023-07-31T03:21:48;10.07;;;3.75;;
70975;SDS011;58635;51.198;6.010;2023-07-31T03:24:15;8.52;;;3.80;;
70975;SDS011;58635;51.198;6.010;2023-07-31T03:26:41;9.25;;;3.75;;
70975;SDS011;58635;51.198;6.010;2023-07-31T03:29:08;10.57;;;4.00;;
70975;SDS011;58635;51.198;6.010;2023-07-31T03:31:34;10.18;;;4.45;;
70975;SDS011;58635;51.198;6.010;2023-07-31T03:34:01;9.45;;;4.22;;
70975;SDS011;58635;51.198;6.010;2023-07-31T03:36:27;8.93;;;4.15;;
70975;SDS011;58635;51.198;6.010;2023-07-31T03:38:54;10.45;;;4.07;;
70975;SDS011;58635;51.198;6.010;2023-07-31T03:41:20;10.05;;;3.90;;
70975;SDS011;58635;51.198;6.010;2023-07-31T03:43:48;11.02;;;4.30;;
70975;SDS011;58635;51.198;6.010;2023-07-31T03:46:18;8.77;;;4.00;;
70975;SDS011;58635;51.198;6.010;2023-07-31T03:48:44;9.13;;;3.90;;
70975;SDS011;58635;51.198;6.010;2023-07-31T03:51:11;8.82;;;4.13;;
70975;SDS011;58635;51.198;6.010;2023-07-31T03:53:37;10.25;;;4.28;;
70975;SDS011;58635;51.198;6.010;2023-07-31T03:56:04;8.27;;;4.28;;
70975;SDS011;58635;51.198;6.010;2023-07-31T03:58:30;11.05;;;4.57;;
70975;SDS011;58635;51.198;6.010;2023-07-31T04:00:57;8.52;;;4.55;;
70975;SDS011;58635;51.198;6.010;2023-07-31T04:03:23;6.38;;;4.00;;
70975;SDS011;58635;51.198;6.010;2023-07-31T04:05:49;10.25;;;4.18;;
70975;SDS011;58635;51.198;6.010;2023-07-31T04:08:16;9.23;;;4.32;;
70975;SDS011;58635;51.198;6.010;2023-07-31T04:10:42;12.35;;;4.03;;
70975;SDS011;58635;51.198;6.010;2023-07-31T04:13:08;8.60;;;4.47;;
70975;SDS011;58635;51.198;6.010;2023-07-31T04:15:35;9.02;;;4.35;;
70975;SDS011;58635;51.198;6.010;2023-07-31T04:18:01;7.50;;;4.28;;
70975;SDS011;58635;51.198;6.010;2023-07-31T04:20:28;11.30;;;4.18;;
70975;SDS011;58635;51.198;6.010;2023-07-31T04:22:54;7.65;;;3.78;;
70975;SDS011;58635;51.198;6.010;2023-07-31T04:25:20;12.52;;;4.18;;
70975;SDS011;58635;51.198;6.010;2023-07-31T04:27:47;8.27;;;4.60;;
70975;SDS011;58635;51.198;6.010;2023-07-31T04:30:13;8.43;;;4.03;;
70975;SDS011;58635;51.198;6.010;2023-07-31T04:32:40;9.73;;;4.00;;
70975;SDS011;58635;51.198;6.010;2023-07-31T04:35:06;8.70;;;4.10;;
70975;SDS011;58635;51.198;6.010;2023-07-31T04:37:33;7.50;;;3.72;;
70975;SDS011;58635;51.198;6.010;2023-07-31T04:39:59;8.75;;;4.10;;
70975;SDS011;58635;51.198;6.010;2023-07-31T04:42:26;9.48;;;3.83;;
70975;SDS011;58635;51.198;6.010;2023-07-31T04:44:52;10.27;;;4.75;;
70975;SDS011;58635;51.198;6.010;2023-07-31T04:47:19;10.15;;;4.60;;
70975;SDS011;58635;51.198;6.010;2023-07-31T04:49:45;12.20;;;4.75;;
70975;SDS011;58635;51.198;6.010;2023-07-31T04:52:12;7.90;;;4.07;;
70975;SDS011;58635;51.198;6.010;2023-07-31T04:54:38;8.00;;;4.50;;
70975;SDS011;58635;51.198;6.010;2023-07-31T04:57:04;7.35;;;3.88;;
70975;SDS011;58635;51.198;6.010;2023-07-31T04:59:31;9.65;;;4.45;;
70975;SDS011;58635;51.198;6.010;2023-07-31T05:01:58;6.68;;;3.70;;
70975;SDS011;58635;51.198;6.010;2023-07-31T05:04:24;8.88;;;3.95;;
70975;SDS011;58635;51.198;6.010;2023-07-31T05:06:50;5.47;;;3.92;;
70975;SDS011;58635;51.198;6.010;2023-07-31T05:09:17;9.70;;;4.30;;
70975;SDS011;58635;51.198;6.010;2023-07-31T05:11:44;7.90;;;4.20;;
70975;SDS011;58635;51.198;6.010;2023-07-31T05:14:10;7.95;;;3.75;;
70975;SDS011;58635;51.198;6.010;2023-07-31T05:16:36;7.15;;;4.03;;
70975;SDS011;58635;51.198;6.010;2023-07-31T05:19:03;6.65;;;3.67;;
70975;SDS011;58635;51.198;6.010;2023-07-31T05:21:29;10.02;;;4.00;;
70975;SDS011;58635;51.198;6.010;2023-07-31T05:23:56;9.35;;;4.50;;
70975;SDS011;58635;51.198;6.010;2023-07-31T05:26:24;5.93;;;3.50;;
70975;SDS011;58635;51.198;6.010;2023-07-31T05:28:51;6.35;;;3.63;;
70975;SDS011;58635;51.198;6.010;2023-07-31T05:31:17;8.57;;;3.88;;
70975;SDS011;58635;51.198;6.010;2023-07-31T05:33:44;10.70;;;3.97;;
70975;SDS011;58635;51.198;6.010;2023-07-31T05:36:10;7.75;;;3.92;;
70975;SDS011;58635;51.198;6.010;2023-07-31T05:38:37;7.43;;;4.10;;
70975;SDS011;58635;51.198;6.010;2023-07-31T05:41:03;6.97;;;3.92;;
70975;SDS011;58635;51.198;6.010;2023-07-31T05:43:29;7.78;;;4.18;;
70975;SDS011;58635;51.198;6.010;2023-07-31T05:45:56;8.48;;;4.00;;
70975;SDS011;58635;51.198;6.010;2023-07-31T05:48:23;7.50;;;3.67;;
70975;SDS011;58635;51.198;6.010;2023-07-31T05:50:49;6.60;;;3.35;;
70975;SDS011;58635;51.198;6.010;2023-07-31T05:53:15;6.35;;;3.85;;
70975;SDS011;58635;51.198;6.010;2023-07-31T05:55:42;7.95;;;3.58;;
70975;SDS011;58635;51.198;6.010;2023-07-31T05:58:08;7.72;;;3.88;;
70975;SDS011;58635;51.198;6.010;2023-07-31T06:00:34;6.43;;;3.40;;
70975;SDS011;58635;51.198;6.010;2023-07-31T06:03:01;7.18;;;3.60;;
70975;SDS011;58635;51.198;6.010;2023-07-31T06:05:27;7.25;;;3.35;;
70975;SDS011;58635;51.198;6.010;2023-07-31T06:07:56;7.30;;;3.67;;
70975;SDS011;58635;51.198;6.010;2023-07-31T06:10:23;5.90;;;3.00;;
70975;SDS011;58635;51.198;6.010;2023-07-31T06:12:49;6.43;;;3.47;;
70975;SDS011;58635;51.198;6.010;2023-07-31T06:15:16;6.28;;;3.50;;
70975;SDS011;58635;51.198;6.010;2023-07-31T06:17:44;5.88;;;3.50;;
70975;SDS011;58635;51.198;6.010;2023-07-31T06:20:10;6.55;;;3.55;;
70975;SDS011;58635;51.198;6.010;2023-07-31T06:22:37;7.53;;;3.67;;
70975;SDS011;58635;51.198;6.010;2023-07-31T06:25:03;7.82;;;3.47;;
70975;SDS011;58635;51.198;6.010;2023-07-31T06:27:30;7.63;;;4.05;;
70975;SDS011;58635;51.198;6.010;2023-07-31T06:29:57;8.43;;;3.40;;
70975;SDS011;58635;51.198;6.010;2023-07-31T06:32:23;7.22;;;3.90;;
70975;SDS011;58635;51.198;6.010;2023-07-31T06:34:50;6.47;;;3.33;;
70975;SDS011;58635;51.198;6.010;2023-07-31T06:37:16;8.15;;;3.00;;
70975;SDS011;58635;51.198;6.010;2023-07-31T06:39:42;8.70;;;3.50;;
70975;SDS011;58635;51.198;6.010;2023-07-31T06:42:09;6.53;;;3.53;;
70975;SDS011;58635;51.198;6.010;2023-07-31T06:44:35;7.05;;;3.70;;
70975;SDS011;58635;51.198;6.010;2023-07-31T06:47:01;10.93;;;3.92;;
70975;SDS011;58635;51.198;6.010;2023-07-31T06:49:28;8.18;;;3.53;;
70975;SDS011;58635;51.198;6.010;2023-07-31T06:51:54;6.38;;;3.00;;
70975;SDS011;58635;51.198;6.010;2023-07-31T06:54:21;8.10;;;3.47;;
70975;SDS011;58635;51.198;6.010;2023-07-31T06:56:47;7.05;;;3.42;;
70975;SDS011;58635;51.198;6.010;2023-07-31T06:59:13;9.50;;;3.38;;
70975;SDS011;58635;51.198;6.010;2023-07-31T07:01:40;6.13;;;2.80;;
70975;SDS011;58635;51.198;6.010;2023-07-31T07:04:06;6.65;;;3.20;;
70975;SDS011;58635;51.198;6.010;2023-07-31T07:06:35;5.25;;;2.90;;
70975;SDS011;58635;51.198;6.010;2023-07-31T07:09:02;6.70;;;2.85;;
70975;SDS011;58635;51.198;6.010;2023-07-31T07:11:29;6.78;;;2.70;;
70975;SDS011;58635;51.198;6.010;2023-07-31T07:13:55;7.10;;;3.10;;
70975;SDS011;58635;51.198;6.010;2023-07-31T07:16:22;8.32;;;3.75;;
70975;SDS011;58635;51.198;6.010;2023-07-31T07:18:48;4.95;;;2.50;;
70975;SDS011;58635;51.198;6.010;2023-07-31T07:21:14;6.22;;;2.58;;
70975;SDS011;58635;51.198;6.010;2023-07-31T07:23:42;5.93;;;2.70;;
70975;SDS011;58635;51.198;6.010;2023-07-31T07:26:08;6.75;;;3.15;;
70975;SDS011;58635;51.198;6.010;2023-07-31T07:28:35;4.70;;;2.53;;
70975;SDS011;58635;51.198;6.010;2023-07-31T07:31:03;5.63;;;2.75;;
70975;SDS011;58635;51.198;6.010;2023-07-31T07:33:29;5.95;;;2.53;;
70975;SDS011;58635;51.198;6.010;2023-07-31T07:35:59;5.18;;;2.78;;
70975;SDS011;58635;51.198;6.010;2023-07-31T07:38:26;5.13;;;2.67;;
70975;SDS011;58635;51.198;6.010;2023-07-31T07:40:53;5.05;;;2.90;;
70975;SDS011;58635;51.198;6.010;2023-07-31T07:43:20;5.72;;;2.28;;
70975;SDS011;58635;51.198;6.010;2023-07-31T07:46:05;5.53;;;2.53;;
70975;SDS011;58635;51.198;6.010;2023-07-31T07:48:47;5.85;;;2.88;;
70975;SDS011;58635;51.198;6.010;2023-07-31T07:51:14;5.20;;;3.10;;
70975;SDS011;58635;51.198;6.010;2023-07-31T07:53:40;5.03;;;2.65;;
70975;SDS011;58635;51.198;6.010;2023-07-31T07:56:06;6.20;;;3.00;;
70975;SDS011;58635;51.198;6.010;2023-07-31T07:58:33;5.82;;;3.08;;
70975;SDS011;58635;51.198;6.010;2023-07-31T08:00:59;5.47;;;2.90;;
70975;SDS011;58635;51.198;6.010;2023-07-31T08:03:26;5.15;;;2.95;;
70975;SDS011;58635;51.198;6.010;2023-07-31T08:05:52;6.20;;;2.70;;
70975;SDS011;58635;51.198;6.010;2023-07-31T08:08:18;7.47;;;3.00;;
70975;SDS011;58635;51.198;6.010;2023-07-31T08:10:45;5.85;;;2.70;;
70975;SDS011;58635;51.198;6.010;2023-07-31T08:13:12;6.43;;;2.85;;
70975;SDS011;58635;51.198;6.010;2023-07-31T08:15:40;5.22;;;3.28;;
70975;SDS011;58635;51.198;6.010;2023-07-31T08:18:07;5.53;;;3.20;;
70975;SDS011;58635;51.198;6.010;2023-07-31T08:20:33;4.93;;;2.85;;
70975;SDS011;58635;51.198;6.010;2023-07-31T08:23:00;5.72;;;2.70;;
70975;SDS011;58635;51.198;6.010;2023-07-31T08:25:26;5.68;;;3.10;;
70975;SDS011;58635;51.198;6.010;2023-07-31T08:27:53;7.05;;;3.63;;
70975;SDS011;58635;51.198;6.010;2023-07-31T08:30:20;8.20;;;3.20;;
70975;SDS011;58635;51.198;6.010;2023-07-31T08:32:46;4.93;;;2.72;;
70975;SDS011;58635;51.198;6.010;2023-07-31T08:35:15;6.38;;;2.80;;
70975;SDS011;58635;51.198;6.010;2023-07-31T08:37:42;6.57;;;2.53;;
70975;SDS011;58635;51.198;6.010;2023-07-31T08:40:08;5.93;;;3.10;;
70975;SDS011;58635;51.198;6.010;2023-07-31T08:42:43;6.82;;;3.05;;
70975;SDS011;58635;51.198;6.010;2023-07-31T08:45:19;4.82;;;2.70;;
70975;SDS011;58635;51.198;6.010;2023-07-31T08:47:49;6.25;;;2.80;;
70975;SDS011;58635;51.198;6.010;2023-07-31T08:50:17;5.32;;;2.90;;
70975;SDS011;58635;51.198;6.010;2023-07-31T08:52:45;7.25;;;3.00;;
70975;SDS011;58635;51.198;6.010;2023-07-31T08:55:13;5.20;;;3.08;;
70975;SDS011;58635;51.198;6.010;2023-07-31T08:57:39;6.43;;;3.10;;
70975;SDS011;58635;51.198;6.010;2023-07-31T09:00:09;7.05;;;2.88;;
70975;SDS011;58635;51.198;6.010;2023-07-31T09:05:12;6.45;;;3.55;;
70975;SDS011;58635;51.198;6.010;2023-07-31T09:07:38;7.40;;;2.92;;
70975;SDS011;58635;51.198;6.010;2023-07-31T09:10:06;5.60;;;3.10;;
70975;SDS011;58635;51.198;6.010;2023-07-31T09:12:33;7.63;;;3.25;;
70975;SDS011;58635;51.198;6.010;2023-07-31T09:14:59;4.45;;;2.88;;
70975;SDS011;58635;51.198;6.010;2023-07-31T09:17:30;4.75;;;3.03;;
70975;SDS011;58635;51.198;6.010;2023-07-31T09:19:57;4.93;;;2.65;;
70975;SDS011;58635;51.198;6.010;2023-07-31T09:22:34;6.60;;;3.55;;
70975;SDS011;58635;51.198;6.010;2023-07-31T09:27:51;5.40;;;2.70;;
70975;SDS011;58635;51.198;6.010;2023-07-31T09:30:19;7.15;;;3.00;;
70975;SDS011;58635;51.198;6.010;2023-07-31T09:32:47;4.90;;;2.60;;
70975;SDS011;58635;51.198;6.010;2023-07-31T09:37:52;6.53;;;3.40;;
70975;SDS011;58635;51.198;6.010;2023-07-31T09:40:28;7.82;;;2.85;;
70975;SDS011;58635;51.198;6.010;2023-07-31T09:43:02;6.47;;;2.88;;
70975;SDS011;58635;51.198;6.010;2023-07-31T09:45:33;5.82;;;2.75;;
70975;SDS011;58635;51.198;6.010;2023-07-31T09:48:08;4.28;;;2.42;;
70975;SDS011;58635;51.198;6.010;2023-07-31T09:50:39;5.10;;;2.60;;
70975;SDS011;58635;51.198;6.010;2023-07-31T09:53:07;5.53;;;2.58;;
70975;SDS011;58635;51.198;6.010;2023-07-31T09:55:35;5.40;;;2.80;;
70975;SDS011;58635;51.198;6.010;2023-07-31T09:58:12;4.20;;;2.25;;
70975;SDS011;58635;51.198;6.010;2023-07-31T10:00:39;3.90;;;2.10;;
70975;SDS011;58635;51.198;6.010;2023-07-31T10:03:07;4.30;;;2.25;;
70975;SDS011;58635;51.198;6.010;2023-07-31T10:05:39;6.10;;;2.60;;
70975;SDS011;58635;51.198;6.010;2023-07-31T10:10:36;3.88;;;1.92;;
70975;SDS011;58635;51.198;6.010;2023-07-31T10:13:03;4.68;;;2.38;;
70975;SDS011;58635;51.198;6.010;2023-07-31T10:15:31;4.68;;;2.00;;
70975;SDS011;58635;51.198;6.010;2023-07-31T10:17:59;9.00;;;2.30;;
70975;SDS011;58635;51.198;6.010;2023-07-31T10:20:27;5.68;;;2.35;;
70975;SDS011;58635;51.198;6.010;2023-07-31T10:22:56;5.28;;;2.33;;
70975;SDS011;58635;51.198;6.010;2023-07-31T10:25:22;5.10;;;2.20;;
70975;SDS011;58635;51.198;6.010;2023-07-31T10:27:50;4.28;;;1.75;;
70975;SDS011;58635;51.198;6.010;2023-07-31T10:30:18;5.20;;;2.10;;
70975;SDS011;58635;51.198;6.010;2023-07-31T10:32:50;3.90;;;1.92;;
70975;SDS011;58635;51.198;6.010;2023-07-31T10:35:19;3.20;;;1.90;;
70975;SDS011;58635;51.198;6.010;2023-07-31T10:37:48;4.32;;;1.92;;
70975;SDS011;58635;51.198;6.010;2023-07-31T10:40:18;5.45;;;1.70;;
70975;SDS011;58635;51.198;6.010;2023-07-31T10:42:49;3.95;;;1.98;;
70975;SDS011;58635;51.198;6.010;2023-07-31T10:45:42;4.38;;;1.88;;
70975;SDS011;58635;51.198;6.010;2023-07-31T10:48:18;4.00;;;1.65;;
70975;SDS011;58635;51.198;6.010;2023-07-31T10:50:49;3.85;;;1.60;;
70975;SDS011;58635;51.198;6.010;2023-07-31T10:53:22;3.25;;;1.60;;
70975;SDS011;58635;51.198;6.010;2023-07-31T10:55:50;4.88;;;1.58;;
70975;SDS011;58635;51.198;6.010;2023-07-31T10:58:20;5.47;;;2.80;;
70975;SDS011;58635;51.198;6.010;2023-07-31T11:00:48;7.07;;;3.10;;
70975;SDS011;58635;51.198;6.010;2023-07-31T11:03:17;4.53;;;2.25;;
70975;SDS011;58635;51.198;6.010;2023-07-31T11:05:51;3.65;;;2.00;;
70975;SDS011;58635;51.198;6.010;2023-07-31T11:13:34;4.97;;;2.10;;
70975;SDS011;58635;51.198;6.010;2023-07-31T11:16:06;4.35;;;1.98;;
70975;SDS011;58635;51.198;6.010;2023-07-31T11:18:34;4.22;;;2.25;;
70975;SDS011;58635;51.198;6.010;2023-07-31T11:21:01;3.67;;;1.65;;
70975;SDS011;58635;51.198;6.010;2023-07-31T11:23:27;3.40;;;1.70;;
70975;SDS011;58635;51.198;6.010;2023-07-31T11:25:53;4.00;;;2.10;;
70975;SDS011;58635;51.198;6.010;2023-07-31T11:28:25;5.05;;;1.95;;
70975;SDS011;58635;51.198;6.010;2023-07-31T11:30:51;3.63;;;2.00;;
70975;SDS011;58635;51.198;6.010;2023-07-31T11:33:18;3.78;;;2.25;;
70975;SDS011;58635;51.198;6.010;2023-07-31T11:35:45;4.85;;;3.08;;
70975;SDS011;58635;51.198;6.010;2023-07-31T11:40:49;3.63;;;1.95;;
70975;SDS011;58635;51.198;6.010;2023-07-31T11:43:15;4.63;;;2.13;;
70975;SDS011;58635;51.198;6.010;2023-07-31T11:45:48;5.43;;;2.38;;
70975;SDS011;58635;51.198;6.010;2023-07-31T11:48:35;3.75;;;1.98;;
70975;SDS011;58635;51.198;6.010;2023-07-31T11:51:04;3.65;;;2.10;;
70975;SDS011;58635;51.198;6.010;2023-07-31T11:56:04;3.10;;;1.88;;
70975;SDS011;58635;51.198;6.010;2023-07-31T11:58:32;4.22;;;2.10;;
70975;SDS011;58635;51.198;6.010;2023-07-31T12:01:00;4.80;;;2.33;;
70975;SDS011;58635;51.198;6.010;2023-07-31T12:03:27;4.03;;;2.30;;
70975;SDS011;58635;51.198;6.010;2023-07-31T12:05:54;4.97;;;2.40;;
70975;SDS011;58635;51.198;6.010;2023-07-31T12:08:21;5.88;;;2.70;;
70975;SDS011;58635;51.198;6.010;2023-07-31T12:10:52;5.25;;;2.75;;
70975;SDS011;58635;51.198;6.010;2023-07-31T12:13:21;7.30;;;3.55;;
70975;SDS011;58635;51.198;6.010;2023-07-31T12:15:55;5.32;;;3.65;;
70975;SDS011;58635;51.198;6.010;2023-07-31T12:18:24;6.60;;;3.35;;
70975;SDS011;58635;51.198;6.010;2023-07-31T12:20:58;5.82;;;3.45;;
70975;SDS011;58635;51.198;6.010;2023-07-31T12:23:27;6.53;;;3.08;;
70975;SDS011;58635;51.198;6.010;2023-07-31T12:26:07;5.40;;;2.88;;
70975;SDS011;58635;51.198;6.010;2023-07-31T12:28:45;5.50;;;3.00;;
70975;SDS011;58635;51.198;6.010;2023-07-31T12:31:13;6.68;;;3.03;;
70975;SDS011;58635;51.198;6.010;2023-07-31T12:33:43;6.28;;;3.25;;
70975;SDS011;58635;51.198;6.010;2023-07-31T12:36:11;6.88;;;3.47;;
70975;SDS011;58635;51.198;6.010;2023-07-31T12:38:39;5.78;;;3.22;;
70975;SDS011;58635;51.198;6.010;2023-07-31T12:41:07;6.68;;;3.30;;
70975;SDS011;58635;51.198;6.010;2023-07-31T12:43:34;7.65;;;3.38;;
70975;SDS011;58635;51.198;6.010;2023-07-31T12:46:02;8.00;;;3.63;;
70975;SDS011;58635;51.198;6.010;2023-07-31T12:48:29;7.20;;;3.28;;
70975;SDS011;58635;51.198;6.010;2023-07-31T12:50:56;5.00;;;3.00;;
70975;SDS011;58635;51.198;6.010;2023-07-31T12:53:23;7.38;;;3.63;;
70975;SDS011;58635;51.198;6.010;2023-07-31T12:55:49;6.55;;;3.40;;
70975;SDS011;58635;51.198;6.010;2023-07-31T12:58:16;6.53;;;3.30;;
70975;SDS011;58635;51.198;6.010;2023-07-31T13:00:42;4.70;;;2.78;;
70975;SDS011;58635;51.198;6.010;2023-07-31T13:03:09;8.35;;;3.38;;
70975;SDS011;58635;51.198;6.010;2023-07-31T13:05:35;6.65;;;3.53;;
70975;SDS011;58635;51.198;6.010;2023-07-31T13:08:01;8.23;;;3.78;;
70975;SDS011;58635;51.198;6.010;2023-07-31T13:10:28;7.68;;;3.75;;
70975;SDS011;58635;51.198;6.010;2023-07-31T13:12:55;8.82;;;3.50;;
70975;SDS011;58635;51.198;6.010;2023-07-31T13:15:22;6.78;;;3.42;;
70975;SDS011;58635;51.198;6.010;2023-07-31T13:17:49;6.15;;;2.88;;
70975;SDS011;58635;51.198;6.010;2023-07-31T13:20:15;7.50;;;3.75;;
70975;SDS011;58635;51.198;6.010;2023-07-31T13:22:42;6.38;;;3.30;;
70975;SDS011;58635;51.198;6.010;2023-07-31T13:25:10;6.85;;;3.38;;
70975;SDS011;58635;51.198;6.010;2023-07-31T13:27:36;7.68;;;3.03;;
70975;SDS011;58635;51.198;6.010;2023-07-31T13:30:03;6.10;;;3.42;;
70975;SDS011;58635;51.198;6.010;2023-07-31T13:32:30;7.97;;;3.20;;
70975;SDS011;58635;51.198;6.010;2023-07-31T13:34:56;6.70;;;3.00;;
70975;SDS011;58635;51.198;6.010;2023-07-31T13:37:23;7.60;;;3.25;;
70975;SDS011;58635;51.198;6.010;2023-07-31T13:39:49;6.82;;;3.17;;
70975;SDS011;58635;51.198;6.010;2023-07-31T13:42:15;6.03;;;3.25;;
70975;SDS011;58635;51.198;6.010;2023-07-31T13:44:42;5.68;;;3.30;;
70975;SDS011;58635;51.198;6.010;2023-07-31T13:47:08;8.63;;;3.50;;
70975;SDS011;58635;51.198;6.010;2023-07-31T13:49:36;8.00;;;3.17;;
70975;SDS011;58635;51.198;6.010;2023-07-31T13:52:04;7.57;;;3.67;;
70975;SDS011;58635;51.198;6.010;2023-07-31T13:54:31;8.05;;;3.17;;
70975;SDS011;58635;51.198;6.010;2023-07-31T13:56:57;6.93;;;3.30;;
70975;SDS011;58635;51.198;6.010;2023-07-31T13:59:27;6.38;;;3.70;;
70975;SDS011;58635;51.198;6.010;2023-07-31T14:01:54;6.15;;;3.10;;
70975;SDS011;58635;51.198;6.010;2023-07-31T14:04:20;9.20;;;3.28;;
70975;SDS011;58635;51.198;6.010;2023-07-31T14:06:46;6.32;;;3.47;;
70975;SDS011;58635;51.198;6.010;2023-07-31T14:09:14;5.65;;;3.45;;
70975;SDS011;58635;51.198;6.010;2023-07-31T14:11:40;7.40;;;3.53;;
70975;SDS011;58635;51.198;6.010;2023-07-31T14:14:06;8.40;;;3.92;;
70975;SDS011;58635;51.198;6.010;2023-07-31T14:16:35;7.03;;;3.50;;
70975;SDS011;58635;51.198;6.010;2023-07-31T14:19:01;6.75;;;3.53;;
70975;SDS011;58635;51.198;6.010;2023-07-31T14:21:27;7.20;;;3.92;;
70975;SDS011;58635;51.198;6.010;2023-07-31T14:23:54;7.03;;;3.95;;
70975;SDS011;58635;51.198;6.010;2023-07-31T14:26:20;8.35;;;3.80;;
70975;SDS011;58635;51.198;6.010;2023-07-31T14:28:47;9.23;;;4.38;;
70975;SDS011;58635;51.198;6.010;2023-07-31T14:31:13;8.10;;;3.97;;
70975;SDS011;58635;51.198;6.010;2023-07-31T14:33:39;6.53;;;3.63;;
70975;SDS011;58635;51.198;6.010;2023-07-31T14:36:06;6.32;;;3.90;;
70975;SDS011;58635;51.198;6.010;2023-07-31T14:38:32;6.43;;;3.50;;
70975;SDS011;58635;51.198;6.010;2023-07-31T14:40:59;5.60;;;3.28;;
70975;SDS011;58635;51.198;6.010;2023-07-31T14:43:25;6.13;;;3.67;;
70975;SDS011;58635;51.198;6.010;2023-07-31T14:45:53;7.00;;;3.40;;
70975;SDS011;58635;51.198;6.010;2023-07-31T14:48:22;5.82;;;3.53;;
70975;SDS011;58635;51.198;6.010;2023-07-31T14:50:48;11.48;;;3.78;;
70975;SDS011;58635;51.198;6.010;2023-07-31T14:53:14;5.70;;;3.60;;
70975;SDS011;58635;51.198;6.010;2023-07-31T14:55:41;6.75;;;3.30;;
70975;SDS011;58635;51.198;6.010;2023-07-31T14:58:07;7.50;;;3.63;;
70975;SDS011;58635;51.198;6.010;2023-07-31T15:00:33;8.23;;;3.50;;
70975;SDS011;58635;51.198;6.010;2023-07-31T15:03:00;6.03;;;3.65;;
70975;SDS011;58635;51.198;6.010;2023-07-31T15:05:27;10.65;;;4.28;;
70975;SDS011;58635;51.198;6.010;2023-07-31T15:07:54;8.65;;;3.58;;
70975;SDS011;58635;51.198;6.010;2023-07-31T15:10:20;6.82;;;3.60;;
70975;SDS011;58635;51.198;6.010;2023-07-31T15:12:47;8.55;;;3.53;;
70975;SDS011;58635;51.198;6.010;2023-07-31T15:15:15;7.07;;;3.42;;
70975;SDS011;58635;51.198;6.010;2023-07-31T15:17:42;7.68;;;3.30;;
70975;SDS011;58635;51.198;6.010;2023-07-31T15:20:09;6.97;;;3.55;;